Time;durP1;ratioP1;P1;durP2;ratioP2;P2;SDS_P1;SDS_P2;PMS_P1;PMS_P2;Temp;Humidity;BMP_temperature;BMP_pressure;BME280_temperature;BME280_humidity;BME280_pressure;Samples;Min_cycle;Max_cycle;Signal;HPM_P1;HPM_P2
2023/07/24 00:00:22;;;;;;;11.55;6.28;;;;;;;;;;4985406;28;20046;-84
2023/07/24 00:02:48;;;;;;;13.25;6.70;;;;;;;;;;4988598;28;20133;-84
2023/07/24 00:05:14;;;;;;;9.77;6.32;;;;;;;;;;4989295;28;20046;-84
2023/07/24 00:07:40;;;;;;;15.45;6.65;;;;;;;;;;4985796;28;20125;-84
2023/07/24 00:10:06;;;;;;;12.10;6.57;;;;;;;;;;4984581;28;20057;-84
2023/07/24 00:12:32;;;;;;;13.45;6.93;;;;;;;;;;4990786;28;20467;-85
2023/07/24 00:14:59;;;;;;;13.55;6.80;;;;;;;;;;4985706;28;20491;-84
2023/07/24 00:17:25;;;;;;;13.00;7.68;;;;;;;;;;4957931;28;20104;-84
2023/07/24 00:19:51;;;;;;;12.77;7.97;;;;;;;;;;4989265;28;20088;-84
2023/07/24 00:22:17;;;;;;;15.77;8.35;;;;;;;;;;4989335;28;20046;-85
2023/07/24 00:24:43;;;;;;;13.35;8.35;;;;;;;;;;4990030;28;20050;-84
2023/07/24 00:27:09;;;;;;;14.85;8.57;;;;;;;;;;4991488;28;20042;-85
2023/07/24 00:29:35;;;;;;;15.15;9.07;;;;;;;;;;4990348;28;20418;-84
2023/07/24 00:32:01;;;;;;;17.83;9.52;;;;;;;;;;4989783;28;20551;-85
2023/07/24 00:34:27;;;;;;;16.58;9.82;;;;;;;;;;4979624;28;20050;-85
2023/07/24 00:36:53;;;;;;;14.20;10.32;;;;;;;;;;4989650;28;20042;-84
2023/07/24 00:39:19;;;;;;;15.52;10.38;;;;;;;;;;4992487;28;20040;-84
2023/07/24 00:41:45;;;;;;;18.15;11.10;;;;;;;;;;4994895;28;20068;-84
2023/07/24 00:44:12;;;;;;;17.50;11.93;;;;;;;;;;5005963;28;20073;-84
2023/07/24 00:46:38;;;;;;;18.38;11.52;;;;;;;;;;4977741;28;20050;-84
2023/07/24 00:49:05;;;;;;;18.38;12.02;;;;;;;;;;4993643;28;20045;-85
2023/07/24 00:51:31;;;;;;;19.05;11.95;;;;;;;;;;4992895;28;20568;-84
2023/07/24 00:53:58;;;;;;;18.80;11.57;;;;;;;;;;4990196;28;20038;-85
2023/07/24 00:56:24;;;;;;;17.23;11.93;;;;;;;;;;5007721;28;20451;-84
2023/07/24 00:58:50;;;;;;;16.83;12.07;;;;;;;;;;4993859;28;20069;-84
2023/07/24 01:01:19;;;;;;;17.65;11.98;;;;;;;;;;4994298;28;20054;-84
2023/07/24 01:03:46;;;;;;;16.80;11.77;;;;;;;;;;4993190;28;20072;-85
2023/07/24 01:06:12;;;;;;;15.98;11.63;;;;;;;;;;4993132;28;20042;-85
2023/07/24 01:08:38;;;;;;;17.35;11.93;;;;;;;;;;4992201;28;20046;-85
2023/07/24 01:11:08;;;;;;;15.70;10.70;;;;;;;;;;4977255;28;20402;-85
2023/07/24 01:13:37;;;;;;;15.63;10.90;;;;;;;;;;4993646;28;20072;-85
2023/07/24 01:16:09;;;;;;;14.77;10.10;;;;;;;;;;4995962;28;20504;-84
2023/07/24 01:18:36;;;;;;;16.70;10.75;;;;;;;;;;5005038;28;20030;-85
2023/07/24 01:21:03;;;;;;;15.13;10.15;;;;;;;;;;4983540;28;20041;-85
2023/07/24 01:23:50;;;;;;;16.25;10.45;;;;;;;;;;4987662;28;20058;-84
2023/07/24 01:26:17;;;;;;;17.48;9.93;;;;;;;;;;4996672;28;20078;-85
2023/07/24 01:28:43;;;;;;;17.23;10.18;;;;;;;;;;4997004;28;20451;-85
2023/07/24 01:31:09;;;;;;;13.63;9.45;;;;;;;;;;5014223;28;20041;-85
2023/07/24 01:33:36;;;;;;;12.88;9.57;;;;;;;;;;4996512;28;20045;-85
2023/07/24 01:36:04;;;;;;;15.13;9.60;;;;;;;;;;4995598;28;20070;-85
2023/07/24 01:38:34;;;;;;;13.65;9.23;;;;;;;;;;4996314;28;20069;-84
2023/07/24 01:41:00;;;;;;;15.02;9.50;;;;;;;;;;4980192;28;20052;-85
2023/07/24 01:43:29;;;;;;;15.25;9.13;;;;;;;;;;4980185;28;20414;-84
2023/07/24 01:45:56;;;;;;;13.60;9.00;;;;;;;;;;5013246;28;20038;-85
2023/07/24 01:48:22;;;;;;;15.45;9.40;;;;;;;;;;4988210;28;20042;-85
2023/07/24 01:50:48;;;;;;;12.70;8.90;;;;;;;;;;4996157;28;20082;-85
2023/07/24 01:53:14;;;;;;;13.82;9.32;;;;;;;;;;4996043;28;20042;-84
2023/07/24 01:55:40;;;;;;;16.45;9.52;;;;;;;;;;5014141;28;20042;-85
2023/07/24 01:58:06;;;;;;;14.00;9.00;;;;;;;;;;4996344;28;20619;-84
2023/07/24 02:00:32;;;;;;;17.35;8.90;;;;;;;;;;4996058;28;20510;-85
2023/07/24 02:02:58;;;;;;;12.82;8.43;;;;;;;;;;5016496;28;20490;-85
2023/07/24 02:05:25;;;;;;;14.07;8.68;;;;;;;;;;5004511;28;20483;-85
2023/07/24 02:07:51;;;;;;;15.90;8.68;;;;;;;;;;4994677;28;20491;-84
2023/07/24 02:10:17;;;;;;;13.38;8.63;;;;;;;;;;5013252;28;20088;-84
2023/07/24 02:12:43;;;;;;;13.45;8.90;;;;;;;;;;4995690;28;20105;-85
2023/07/24 02:15:09;;;;;;;17.20;9.77;;;;;;;;;;4996222;28;20121;-85
2023/07/24 02:17:35;;;;;;;13.20;8.93;;;;;;;;;;4994717;28;20507;-84
2023/07/24 02:20:01;;;;;;;12.90;9.00;;;;;;;;;;4995583;28;20042;-84
2023/07/24 02:22:27;;;;;;;14.45;9.30;;;;;;;;;;4995525;28;20052;-85
2023/07/24 02:24:53;;;;;;;15.90;8.77;;;;;;;;;;4995318;28;20091;-85
2023/07/24 02:27:27;;;;;;;14.77;9.18;;;;;;;;;;4995543;28;20041;-84
2023/07/24 02:29:54;;;;;;;13.82;9.38;;;;;;;;;;4995180;28;20042;-85
2023/07/24 02:32:22;;;;;;;16.02;9.23;;;;;;;;;;4995421;28;20041;-85
2023/07/24 02:34:49;;;;;;;13.80;9.20;;;;;;;;;;4995535;28;20498;-85
2023/07/24 02:37:15;;;;;;;14.32;9.35;;;;;;;;;;4994921;28;20510;-84
2023/07/24 02:39:41;;;;;;;15.45;9.68;;;;;;;;;;5012039;28;20045;-85
2023/07/24 02:42:07;;;;;;;16.58;9.73;;;;;;;;;;4995524;28;20127;-85
2023/07/24 02:44:34;;;;;;;15.23;9.63;;;;;;;;;;4995094;28;20125;-85
2023/07/24 02:47:00;;;;;;;14.82;9.05;;;;;;;;;;4968782;28;20050;-85
2023/07/24 02:49:26;;;;;;;13.32;8.85;;;;;;;;;;4995120;28;20103;-84
2023/07/24 02:51:53;;;;;;;14.35;9.75;;;;;;;;;;4994629;28;20053;-85
2023/07/24 02:54:19;;;;;;;13.95;9.43;;;;;;;;;;5012540;28;20113;-85
2023/07/24 02:56:45;;;;;;;13.90;9.77;;;;;;;;;;5012120;28;20080;-85
2023/07/24 02:59:11;;;;;;;16.08;10.13;;;;;;;;;;4995240;28;20034;-85
2023/07/24 03:01:37;;;;;;;14.93;10.02;;;;;;;;;;4994650;28;20045;-84
2023/07/24 03:04:05;;;;;;;14.82;10.07;;;;;;;;;;4980989;28;20100;-85
2023/07/24 03:06:31;;;;;;;14.95;10.00;;;;;;;;;;4994855;28;20045;-85
2023/07/24 03:08:57;;;;;;;13.98;10.02;;;;;;;;;;4978814;28;20092;-85
2023/07/24 03:11:23;;;;;;;13.98;10.15;;;;;;;;;;4978675;28;20038;-85
2023/07/24 03:13:49;;;;;;;16.73;10.52;;;;;;;;;;4994730;28;20049;-85
2023/07/24 03:16:17;;;;;;;16.17;10.68;;;;;;;;;;4995348;28;20077;-85
2023/07/24 03:18:43;;;;;;;14.65;9.90;;;;;;;;;;4994694;28;20046;-85
2023/07/24 03:21:09;;;;;;;16.27;10.65;;;;;;;;;;4994766;28;20053;-85
2023/07/24 03:23:35;;;;;;;19.55;10.70;;;;;;;;;;4997143;28;20384;-85
2023/07/24 03:26:01;;;;;;;14.50;10.48;;;;;;;;;;4978644;28;20046;-85
2023/07/24 03:28:27;;;;;;;14.88;10.55;;;;;;;;;;4980526;28;20030;-85
2023/07/24 03:30:54;;;;;;;15.20;10.93;;;;;;;;;;4978159;28;20116;-85
2023/07/24 03:33:20;;;;;;;16.25;10.52;;;;;;;;;;4994603;28;20084;-86
2023/07/24 03:35:47;;;;;;;17.13;10.73;;;;;;;;;;5012173;28;20052;-85
2023/07/24 03:38:13;;;;;;;16.80;10.10;;;;;;;;;;4994202;28;20064;-85
2023/07/24 03:40:39;;;;;;;15.52;10.80;;;;;;;;;;4993910;28;20056;-85
2023/07/24 03:43:05;;;;;;;16.00;10.73;;;;;;;;;;4994506;28;20121;-85
2023/07/24 03:45:31;;;;;;;15.23;10.55;;;;;;;;;;4994178;28;20049;-85
2023/07/24 03:47:57;;;;;;;15.23;10.50;;;;;;;;;;4994679;28;20042;-85
2023/07/24 03:50:24;;;;;;;16.08;11.00;;;;;;;;;;4994123;28;20057;-85
2023/07/24 03:52:50;;;;;;;14.43;9.73;;;;;;;;;;4994565;28;20387;-84
2023/07/24 03:55:16;;;;;;;16.92;10.90;;;;;;;;;;4994659;28;20072;-85
2023/07/24 03:57:42;;;;;;;14.38;10.45;;;;;;;;;;4980820;28;20463;-85
2023/07/24 04:00:08;;;;;;;16.25;10.48;;;;;;;;;;4978461;28;20045;-85
2023/07/24 04:02:34;;;;;;;14.57;9.88;;;;;;;;;;4993297;28;20103;-84
2023/07/24 04:05:00;;;;;;;15.00;9.75;;;;;;;;;;4993642;28;20046;-84
2023/07/24 04:07:26;;;;;;;18.30;10.18;;;;;;;;;;5011093;28;20053;-85
2023/07/24 04:09:52;;;;;;;15.52;9.93;;;;;;;;;;4993870;28;20042;-85
2023/07/24 04:12:18;;;;;;;16.52;10.27;;;;;;;;;;4993847;28;20042;-85
2023/07/24 04:14:44;;;;;;;15.50;10.13;;;;;;;;;;4994363;28;20096;-84
2023/07/24 04:17:10;;;;;;;14.70;9.35;;;;;;;;;;5015511;28;20100;-84
2023/07/24 04:19:37;;;;;;;15.85;10.35;;;;;;;;;;4998860;28;20050;-85
2023/07/24 04:22:03;;;;;;;14.60;10.02;;;;;;;;;;4997545;28;20053;-85
2023/07/24 04:24:29;;;;;;;15.45;10.18;;;;;;;;;;4981066;28;20060;-84
2023/07/24 04:26:55;;;;;;;14.70;10.32;;;;;;;;;;4999170;28;20530;-85
2023/07/24 04:29:23;;;;;;;13.70;9.82;;;;;;;;;;4998001;28;20419;-85
2023/07/24 04:31:50;;;;;;;17.13;10.77;;;;;;;;;;5014816;28;20519;-85
2023/07/24 04:34:16;;;;;;;14.88;9.93;;;;;;;;;;4981717;28;20046;-85
2023/07/24 04:36:42;;;;;;;15.85;10.35;;;;;;;;;;4982429;28;20116;-85
2023/07/24 04:39:08;;;;;;;15.98;9.70;;;;;;;;;;5015313;28;20422;-85
2023/07/24 04:41:34;;;;;;;13.85;8.88;;;;;;;;;;4998761;28;20402;-85
2023/07/24 04:44:01;;;;;;;15.02;9.48;;;;;;;;;;4997077;28;20503;-85
2023/07/24 04:46:27;;;;;;;15.32;10.02;;;;;;;;;;5008519;28;20053;-85
2023/07/24 04:48:53;;;;;;;16.80;10.30;;;;;;;;;;4998280;28;20045;-85
2023/07/24 04:51:19;;;;;;;15.27;10.30;;;;;;;;;;4981257;28;20048;-85
2023/07/24 04:53:45;;;;;;;13.82;9.55;;;;;;;;;;4996716;28;20080;-85
2023/07/24 04:56:11;;;;;;;18.55;10.35;;;;;;;;;;4977639;28;20040;-85
2023/07/24 04:58:37;;;;;;;14.25;10.10;;;;;;;;;;4982872;28;20048;-85
2023/07/24 05:01:04;;;;;;;15.50;10.90;;;;;;;;;;4997038;28;20045;-85
2023/07/24 05:03:30;;;;;;;18.67;10.68;;;;;;;;;;5007144;28;20073;-85
2023/07/24 05:05:56;;;;;;;15.68;10.30;;;;;;;;;;4998727;28;20076;-85
2023/07/24 05:08:22;;;;;;;16.33;10.43;;;;;;;;;;4996253;28;20041;-85
2023/07/24 05:10:54;;;;;;;14.48;9.90;;;;;;;;;;4996846;28;20453;-85
2023/07/24 05:13:20;;;;;;;15.73;10.30;;;;;;;;;;4981444;28;20384;-85
2023/07/24 05:15:46;;;;;;;15.02;10.13;;;;;;;;;;5002443;28;20042;-85
2023/07/24 05:18:12;;;;;;;15.57;10.52;;;;;;;;;;4985779;28;20054;-85
2023/07/24 05:20:38;;;;;;;16.02;10.18;;;;;;;;;;4987015;28;20066;-85
2023/07/24 05:23:04;;;;;;;17.55;11.18;;;;;;;;;;4992687;28;20050;-85
2023/07/24 05:25:30;;;;;;;17.30;10.18;;;;;;;;;;4993496;28;20511;-85
2023/07/24 05:27:56;;;;;;;13.52;10.13;;;;;;;;;;4988581;28;20042;-85
2023/07/24 05:30:23;;;;;;;16.83;9.70;;;;;;;;;;4994860;28;20042;-85
2023/07/24 05:32:49;;;;;;;14.70;9.35;;;;;;;;;;4992962;28;20043;-86
2023/07/24 05:35:15;;;;;;;16.08;10.18;;;;;;;;;;4970746;28;20484;-84
2023/07/24 05:37:41;;;;;;;16.90;10.00;;;;;;;;;;4980540;28;20500;-84
2023/07/24 05:40:08;;;;;;;14.73;9.60;;;;;;;;;;4978995;28;20046;-85
2023/07/24 05:42:38;;;;;;;14.93;9.27;;;;;;;;;;4958873;28;20507;-85
2023/07/24 05:45:05;;;;;;;17.00;9.38;;;;;;;;;;4981104;28;20093;-85
2023/07/24 05:47:31;;;;;;;18.40;9.77;;;;;;;;;;4993342;28;20038;-85
2023/07/24 05:49:57;;;;;;;15.25;9.57;;;;;;;;;;4991573;28;20079;-85
2023/07/24 05:52:23;;;;;;;14.63;9.60;;;;;;;;;;4977160;28;20038;-85
2023/07/24 05:54:49;;;;;;;17.33;8.90;;;;;;;;;;4993351;28;20050;-85
2023/07/24 05:57:15;;;;;;;14.48;8.77;;;;;;;;;;4992768;28;20044;-85
2023/07/24 05:59:42;;;;;;;13.80;9.70;;;;;;;;;;4976698;28;20042;-85
2023/07/24 06:02:09;;;;;;;17.67;8.82;;;;;;;;;;4974327;28;20058;-86
2023/07/24 06:04:35;;;;;;;14.55;9.23;;;;;;;;;;4973943;28;20043;-85
2023/07/24 06:07:01;;;;;;;14.02;8.27;;;;;;;;;;4974448;28;20047;-85
2023/07/24 06:09:27;;;;;;;12.75;8.82;;;;;;;;;;4957565;28;20038;-85
2023/07/24 06:11:53;;;;;;;13.68;8.25;;;;;;;;;;4973516;28;20041;-85
2023/07/24 06:14:19;;;;;;;11.98;8.23;;;;;;;;;;4972657;28;20046;-85
2023/07/24 06:16:45;;;;;;;14.60;8.57;;;;;;;;;;4981641;28;20051;-85
2023/07/24 06:19:11;;;;;;;12.40;8.38;;;;;;;;;;4963424;28;20039;-84
2023/07/24 06:21:38;;;;;;;15.45;8.35;;;;;;;;;;4980139;28;20046;-82
2023/07/24 06:24:04;;;;;;;13.90;7.95;;;;;;;;;;4979560;28;20046;-85
2023/07/24 06:26:30;;;;;;;13.40;7.65;;;;;;;;;;5013695;28;20109;-85
2023/07/24 06:28:56;;;;;;;13.60;8.38;;;;;;;;;;4995583;28;20042;-84
2023/07/24 06:31:23;;;;;;;11.48;7.18;;;;;;;;;;4995876;28;20096;-84
2023/07/24 06:33:49;;;;;;;13.95;7.50;;;;;;;;;;4992976;28;20131;-84
2023/07/24 06:36:15;;;;;;;13.50;7.35;;;;;;;;;;5009031;28;20037;-84
2023/07/24 06:38:42;;;;;;;13.85;7.07;;;;;;;;;;4997214;28;20061;-89
2023/07/24 06:41:08;;;;;;;11.30;7.28;;;;;;;;;;4995052;28;20124;-86
2023/07/24 06:43:34;;;;;;;12.93;7.07;;;;;;;;;;4995113;28;20045;-86
2023/07/24 06:46:00;;;;;;;11.10;7.00;;;;;;;;;;4994974;28;20038;-86
2023/07/24 06:48:26;;;;;;;13.57;7.15;;;;;;;;;;4995501;28;20445;-85
2023/07/24 06:50:52;;;;;;;12.27;7.47;;;;;;;;;;4995448;28;20502;-85
2023/07/24 06:53:18;;;;;;;12.75;7.05;;;;;;;;;;5012701;28;20042;-85
2023/07/24 06:55:44;;;;;;;15.02;6.68;;;;;;;;;;4979176;28;20129;-85
2023/07/24 06:58:10;;;;;;;12.32;7.18;;;;;;;;;;4978221;28;20046;-84
2023/07/24 07:00:36;;;;;;;12.43;7.07;;;;;;;;;;4979153;28;20097;-84
2023/07/24 07:03:02;;;;;;;12.05;6.43;;;;;;;;;;4992929;28;20053;-87
2023/07/24 07:05:28;;;;;;;15.07;6.88;;;;;;;;;;4994510;28;20041;-88
2023/07/24 07:07:54;;;;;;;14.55;6.85;;;;;;;;;;4994848;28;20077;-83
2023/07/24 07:10:21;;;;;;;13.75;6.72;;;;;;;;;;4994054;28;20045;-84
2023/07/24 07:12:47;;;;;;;14.85;6.82;;;;;;;;;;5012216;28;20491;-83
2023/07/24 07:15:13;;;;;;;14.07;6.13;;;;;;;;;;5011925;28;20037;-84
2023/07/24 07:17:39;;;;;;;14.27;6.60;;;;;;;;;;5009047;28;20054;-84
2023/07/24 07:20:06;;;;;;;12.60;6.38;;;;;;;;;;4994390;28;20129;-84
2023/07/24 07:22:32;;;;;;;13.73;6.00;;;;;;;;;;4993270;28;20458;-82
2023/07/24 07:24:58;;;;;;;12.98;6.30;;;;;;;;;;4994457;28;20475;-83
2023/07/24 07:27:24;;;;;;;12.93;6.28;;;;;;;;;;4990565;28;20920;-83
2023/07/24 07:29:50;;;;;;;13.40;6.38;;;;;;;;;;4991350;28;20065;-82
2023/07/24 07:32:16;;;;;;;15.10;6.40;;;;;;;;;;4994089;28;20450;-83
2023/07/24 07:34:42;;;;;;;13.13;6.00;;;;;;;;;;4978910;28;20486;-83
2023/07/24 07:37:08;;;;;;;9.48;5.68;;;;;;;;;;5013187;28;20034;-83
2023/07/24 07:39:34;;;;;;;13.48;5.95;;;;;;;;;;5021117;28;20033;-83
2023/07/24 07:42:00;;;;;;;14.32;6.00;;;;;;;;;;4993608;28;20046;-83
2023/07/24 07:44:26;;;;;;;17.40;6.43;;;;;;;;;;4978007;28;20045;-83
2023/07/24 07:46:52;;;;;;;11.45;6.07;;;;;;;;;;4994556;28;20049;-83
2023/07/24 07:49:18;;;;;;;13.18;5.78;;;;;;;;;;4995309;28;20048;-85
2023/07/24 07:51:45;;;;;;;15.75;6.72;;;;;;;;;;4998702;28;20077;-84
2023/07/24 07:54:11;;;;;;;13.00;6.13;;;;;;;;;;4981961;28;20038;-83
2023/07/24 07:56:37;;;;;;;13.05;5.80;;;;;;;;;;4998617;28;20139;-84
2023/07/24 07:59:03;;;;;;;14.80;6.32;;;;;;;;;;4981773;28;20038;-84
2023/07/24 08:01:30;;;;;;;13.73;6.38;;;;;;;;;;5013220;28;20502;-84
2023/07/24 08:03:56;;;;;;;14.70;6.00;;;;;;;;;;4979986;28;20050;-83
2023/07/24 08:06:22;;;;;;;17.35;6.57;;;;;;;;;;4998100;28;20053;-83
2023/07/24 08:08:48;;;;;;;12.35;6.35;;;;;;;;;;4982298;28;20125;-84
2023/07/24 08:11:14;;;;;;;17.98;6.70;;;;;;;;;;4997522;28;20034;-85
2023/07/24 08:13:40;;;;;;;16.83;7.07;;;;;;;;;;4998485;28;20042;-84
2023/07/24 08:16:17;;;;;;;17.65;6.40;;;;;;;;;;5015930;28;20549;-83
2023/07/24 08:18:43;;;;;;;12.65;5.93;;;;;;;;;;4997993;28;20065;-83
2023/07/24 08:21:09;;;;;;;15.10;6.40;;;;;;;;;;4998072;28;20533;-83
2023/07/24 08:23:35;;;;;;;14.10;6.13;;;;;;;;;;4997987;28;20492;-84
2023/07/24 08:26:02;;;;;;;11.43;5.68;;;;;;;;;;4998359;28;20492;-84
2023/07/24 08:28:28;;;;;;;13.02;5.70;;;;;;;;;;4997990;28;20499;-84
2023/07/24 08:30:58;;;;;;;12.70;5.22;;;;;;;;;;4998267;28;20740;-83
2023/07/24 08:33:24;;;;;;;14.10;6.28;;;;;;;;;;4997150;28;20037;-84
2023/07/24 08:36:00;;;;;;;12.30;4.97;;;;;;;;;;4982284;28;20494;-84
2023/07/24 08:38:26;;;;;;;14.02;5.32;;;;;;;;;;4991485;28;20041;-84
2023/07/24 08:41:05;;;;;;;12.55;5.20;;;;;;;;;;4981852;28;20060;-84
2023/07/24 08:43:31;;;;;;;8.55;4.57;;;;;;;;;;4997720;28;20394;-85
2023/07/24 08:45:59;;;;;;;10.27;4.75;;;;;;;;;;4997797;28;20563;-84
2023/07/24 08:48:27;;;;;;;11.38;4.90;;;;;;;;;;5014801;28;20080;-84
2023/07/24 08:50:53;;;;;;;11.32;5.25;;;;;;;;;;4997452;28;20088;-83
2023/07/24 08:53:20;;;;;;;13.57;5.05;;;;;;;;;;4984281;28;20094;-84
2023/07/24 08:55:49;;;;;;;9.13;4.38;;;;;;;;;;4995988;28;20129;-84
2023/07/24 08:58:15;;;;;;;10.82;4.80;;;;;;;;;;4997184;28;20049;-84
2023/07/24 09:00:41;;;;;;;9.57;4.78;;;;;;;;;;4993676;28;20521;-84
2023/07/24 09:03:08;;;;;;;11.65;4.93;;;;;;;;;;4997690;28;20419;-81
2023/07/24 09:05:34;;;;;;;10.73;4.80;;;;;;;;;;4997127;28;20045;-83
2023/07/24 09:08:00;;;;;;;10.93;4.68;;;;;;;;;;4997100;28;20511;-81
2023/07/24 09:10:26;;;;;;;8.95;4.57;;;;;;;;;;4997085;28;20037;-82
2023/07/24 09:12:53;;;;;;;9.25;4.75;;;;;;;;;;4996943;28;20042;-81
2023/07/24 09:15:19;;;;;;;11.43;4.70;;;;;;;;;;4996178;28;20038;-81
2023/07/24 09:17:51;;;;;;;10.70;5.13;;;;;;;;;;4996782;28;20042;-81
2023/07/24 09:20:18;;;;;;;11.27;5.20;;;;;;;;;;4997104;28;20526;-81
2023/07/24 09:22:54;;;;;;;13.60;4.93;;;;;;;;;;4996707;28;20099;-81
2023/07/24 09:25:33;;;;;;;10.45;4.50;;;;;;;;;;4996564;28;20042;-82
2023/07/24 09:27:59;;;;;;;11.63;4.80;;;;;;;;;;4997606;28;20556;-81
2023/07/24 09:30:25;;;;;;;9.07;4.95;;;;;;;;;;4980367;28;20041;-81
2023/07/24 09:32:55;;;;;;;12.52;4.43;;;;;;;;;;4999025;28;20491;-81
2023/07/24 09:35:28;;;;;;;11.70;4.38;;;;;;;;;;4996043;28;20049;-81
2023/07/24 09:38:04;;;;;;;10.07;4.40;;;;;;;;;;4988570;28;20037;-81
2023/07/24 09:40:38;;;;;;;9.05;4.43;;;;;;;;;;4997659;28;20038;-81
2023/07/24 09:43:14;;;;;;;10.73;4.90;;;;;;;;;;4997143;28;20514;-81
2023/07/24 09:45:40;;;;;;;11.93;4.88;;;;;;;;;;4996189;28;20045;-81
2023/07/24 09:48:10;;;;;;;12.43;5.07;;;;;;;;;;5013634;28;20372;-81
2023/07/24 09:50:37;;;;;;;9.43;4.93;;;;;;;;;;4979962;28;20050;-81
2023/07/24 09:53:04;;;;;;;10.25;4.78;;;;;;;;;;4996801;28;20042;-81
2023/07/24 09:55:33;;;;;;;12.02;5.20;;;;;;;;;;4996032;28;20041;-81
2023/07/24 09:58:00;;;;;;;11.75;4.85;;;;;;;;;;4980277;28;20048;-81
2023/07/24 10:00:27;;;;;;;12.10;5.22;;;;;;;;;;4995568;28;20049;-81
2023/07/24 10:02:54;;;;;;;12.73;5.55;;;;;;;;;;4980280;28;20069;-81
2023/07/24 10:05:20;;;;;;;9.63;5.32;;;;;;;;;;4996469;28;20506;-81
2023/07/24 10:07:46;;;;;;;9.40;5.07;;;;;;;;;;4995896;28;20099;-81
2023/07/24 10:10:13;;;;;;;13.88;5.18;;;;;;;;;;4995950;28;20050;-81
2023/07/24 10:12:39;;;;;;;9.50;4.53;;;;;;;;;;4995427;28;20037;-81
2023/07/24 10:15:06;;;;;;;8.75;4.35;;;;;;;;;;4980048;28;20052;-80
2023/07/24 10:17:36;;;;;;;10.23;4.75;;;;;;;;;;4998287;28;20050;-81
2023/07/24 10:20:04;;;;;;;9.73;4.38;;;;;;;;;;4996277;28;20092;-81
2023/07/24 10:22:30;;;;;;;9.15;4.53;;;;;;;;;;4995403;28;20110;-80
2023/07/24 10:24:57;;;;;;;8.68;4.53;;;;;;;;;;4979878;28;20045;-82
2023/07/24 10:27:28;;;;;;;8.20;4.55;;;;;;;;;;4995958;28;20125;-82
2023/07/24 10:30:01;;;;;;;8.98;4.28;;;;;;;;;;4996238;28;20041;-81
2023/07/24 10:32:27;;;;;;;6.43;4.07;;;;;;;;;;4996106;28;20410;-81
2023/07/24 10:34:56;;;;;;;8.80;4.40;;;;;;;;;;4979282;28;20049;-81
2023/07/24 10:37:31;;;;;;;11.38;4.40;;;;;;;;;;4999468;28;20045;-81
2023/07/24 10:39:57;;;;;;;7.90;4.47;;;;;;;;;;5001631;28;20052;-81
2023/07/24 10:42:24;;;;;;;7.18;3.78;;;;;;;;;;4998524;28;20042;-82
2023/07/24 10:44:50;;;;;;;7.53;3.95;;;;;;;;;;4995269;28;20080;-81
2023/07/24 10:47:17;;;;;;;10.15;4.25;;;;;;;;;;4995252;28;20077;-81
2023/07/24 10:49:49;;;;;;;9.07;4.25;;;;;;;;;;4979165;28;20475;-81
2023/07/24 10:52:15;;;;;;;9.40;4.75;;;;;;;;;;4994338;28;20038;-86
2023/07/24 10:54:41;;;;;;;10.90;4.82;;;;;;;;;;4992886;28;20049;-88
2023/07/24 10:57:07;;;;;;;8.82;4.60;;;;;;;;;;4995788;28;20513;-84
2023/07/24 10:59:40;;;;;;;8.27;4.60;;;;;;;;;;4995632;28;20037;-83
2023/07/24 11:02:07;;;;;;;9.30;4.38;;;;;;;;;;4995510;28;20104;-85
2023/07/24 11:04:34;;;;;;;11.38;4.47;;;;;;;;;;5012299;28;20064;-83
2023/07/24 11:07:00;;;;;;;7.75;3.70;;;;;;;;;;5013014;28;20042;-84
2023/07/24 11:09:37;;;;;;;11.13;4.22;;;;;;;;;;4979223;28;20046;-84
2023/07/24 11:12:16;;;;;;;10.95;4.32;;;;;;;;;;4988012;28;20495;-85
2023/07/24 11:14:49;;;;;;;8.32;3.90;;;;;;;;;;4994832;28;20041;-84
2023/07/24 11:17:15;;;;;;;7.82;4.15;;;;;;;;;;4994930;28;20082;-84
2023/07/24 11:19:41;;;;;;;7.85;4.07;;;;;;;;;;5012320;28;20045;-85
2023/07/24 11:22:07;;;;;;;9.30;4.10;;;;;;;;;;4993965;28;20516;-82
2023/07/24 11:24:33;;;;;;;9.10;3.97;;;;;;;;;;4994290;28;20532;-83
2023/07/24 11:26:59;;;;;;;10.35;4.68;;;;;;;;;;4995150;28;20038;-82
2023/07/24 11:29:26;;;;;;;9.48;4.57;;;;;;;;;;4994591;28;20050;-83
2023/07/24 11:31:56;;;;;;;7.90;4.32;;;;;;;;;;5011998;28;20446;-83
2023/07/24 11:34:23;;;;;;;8.13;4.20;;;;;;;;;;5000473;28;20052;-83
2023/07/24 11:36:49;;;;;;;5.68;3.70;;;;;;;;;;4993706;28;20038;-83
2023/07/24 11:39:22;;;;;;;6.10;4.30;;;;;;;;;;5008435;28;20034;-84
2023/07/24 11:41:48;;;;;;;7.20;4.38;;;;;;;;;;4994134;28;20046;-84
2023/07/24 11:44:16;;;;;;;9.32;4.30;;;;;;;;;;4987199;28;20052;-83
2023/07/24 11:46:43;;;;;;;7.32;4.40;;;;;;;;;;5012226;28;20042;-83
2023/07/24 11:49:09;;;;;;;9.75;4.32;;;;;;;;;;4978148;28;20495;-83
2023/07/24 11:51:37;;;;;;;6.82;4.47;;;;;;;;;;4995071;28;20053;-84
2023/07/24 11:54:07;;;;;;;6.95;4.50;;;;;;;;;;4994562;28;20096;-82
2023/07/24 11:56:33;;;;;;;6.45;4.05;;;;;;;;;;4977916;28;20033;-82
2023/07/24 11:59:09;;;;;;;6.22;4.03;;;;;;;;;;4993715;28;20046;-83
2023/07/24 12:01:35;;;;;;;7.60;4.10;;;;;;;;;;4986900;28;20116;-83
2023/07/24 12:04:01;;;;;;;8.07;4.40;;;;;;;;;;4993873;28;20120;-83
2023/07/24 12:06:27;;;;;;;6.90;4.40;;;;;;;;;;4994860;28;20539;-83
2023/07/24 12:09:01;;;;;;;7.43;4.20;;;;;;;;;;4994402;28;20475;-83
2023/07/24 12:11:27;;;;;;;9.38;4.55;;;;;;;;;;4994162;28;20438;-83
2023/07/24 12:13:53;;;;;;;10.40;4.45;;;;;;;;;;4994010;28;20049;-83
2023/07/24 12:16:19;;;;;;;8.43;4.93;;;;;;;;;;4994770;28;20487;-83
2023/07/24 12:18:45;;;;;;;7.70;4.65;;;;;;;;;;4993880;28;20053;-82
2023/07/24 12:21:11;;;;;;;6.18;4.10;;;;;;;;;;4994354;28;20387;-82
2023/07/24 12:23:37;;;;;;;9.05;4.13;;;;;;;;;;4994010;28;20184;-82
2023/07/24 12:26:03;;;;;;;6.80;4.50;;;;;;;;;;4993924;28;20049;-81
2023/07/24 12:28:30;;;;;;;7.55;4.80;;;;;;;;;;4994373;28;20041;-82
2023/07/24 12:30:56;;;;;;;7.68;4.53;;;;;;;;;;5011645;28;20080;-81
2023/07/24 12:33:23;;;;;;;7.57;5.05;;;;;;;;;;4994414;28;20143;-81
2023/07/24 12:35:50;;;;;;;13.38;6.40;;;;;;;;;;4994697;28;20077;-77
2023/07/24 12:38:16;;;;;;;10.50;7.00;;;;;;;;;;5008369;28;20037;-82
2023/07/24 12:40:42;;;;;;;11.15;6.57;;;;;;;;;;4980913;28;20050;-80
2023/07/24 12:43:08;;;;;;;8.70;5.90;;;;;;;;;;4989945;28;20121;-80
2023/07/24 12:45:34;;;;;;;9.02;6.15;;;;;;;;;;4981853;28;20045;-80
2023/07/24 12:48:00;;;;;;;8.63;6.68;;;;;;;;;;4997135;28;20042;-80
2023/07/24 12:50:26;;;;;;;12.65;6.90;;;;;;;;;;4997732;28;20073;-81
2023/07/24 12:52:52;;;;;;;9.98;6.10;;;;;;;;;;4997411;28;20045;-80
2023/07/24 12:55:18;;;;;;;7.88;5.32;;;;;;;;;;4992693;28;20117;-82
2023/07/24 12:57:44;;;;;;;7.60;5.53;;;;;;;;;;4997662;28;20042;-82
2023/07/24 13:00:11;;;;;;;8.80;6.40;;;;;;;;;;4997288;28;20145;-83
2023/07/24 13:02:37;;;;;;;8.98;5.60;;;;;;;;;;4997363;28;20073;-83
2023/07/24 13:05:03;;;;;;;7.18;5.90;;;;;;;;;;4996891;28;20041;-83
2023/07/24 13:07:29;;;;;;;6.78;5.60;;;;;;;;;;4996676;28;20038;-83
2023/07/24 13:09:55;;;;;;;6.70;5.07;;;;;;;;;;4988570;28;20042;-83
2023/07/24 13:12:21;;;;;;;6.50;5.43;;;;;;;;;;4973036;28;20128;-82
2023/07/24 13:14:47;;;;;;;7.55;4.85;;;;;;;;;;4991196;28;20487;-82
2023/07/24 13:17:13;;;;;;;6.28;4.38;;;;;;;;;;4990813;28;20516;-82
2023/07/24 13:19:39;;;;;;;6.72;4.30;;;;;;;;;;4987561;28;20072;-83
2023/07/24 13:22:05;;;;;;;6.30;3.58;;;;;;;;;;4996688;28;20128;-82
2023/07/24 13:24:32;;;;;;;4.07;2.83;;;;;;;;;;5011963;28;20044;-82
2023/07/24 13:26:58;;;;;;;3.25;1.65;;;;;;;;;;4986272;28;20041;-82
2023/07/24 13:29:24;;;;;;;3.80;1.52;;;;;;;;;;4994657;28;20539;-82
2023/07/24 13:31:53;;;;;;;3.03;1.83;;;;;;;;;;4993904;28;20100;-82
2023/07/24 13:34:19;;;;;;;5.70;1.65;;;;;;;;;;5009058;28;20040;-82
2023/07/24 13:36:46;;;;;;;9.02;2.63;;;;;;;;;;4986731;28;20444;-81
2023/07/24 13:39:12;;;;;;;3.95;1.90;;;;;;;;;;5001622;28;20034;-82
2023/07/24 13:41:39;;;;;;;4.78;1.90;;;;;;;;;;4988882;28;20049;-82
2023/07/24 13:44:05;;;;;;;5.57;1.70;;;;;;;;;;5010015;28;20037;-82
2023/07/24 13:46:31;;;;;;;3.70;1.90;;;;;;;;;;4999289;28;20490;-83
2023/07/24 13:48:57;;;;;;;3.10;1.90;;;;;;;;;;4994228;28;20041;-82
2023/07/24 13:51:23;;;;;;;5.05;1.75;;;;;;;;;;4996412;28;20045;-83
2023/07/24 13:53:51;;;;;;;4.30;1.42;;;;;;;;;;4994361;28;20073;-82
2023/07/24 13:56:18;;;;;;;4.10;1.75;;;;;;;;;;5013807;28;20041;-83
2023/07/24 13:58:44;;;;;;;4.43;1.90;;;;;;;;;;4994659;28;20041;-83
2023/07/24 14:01:10;;;;;;;3.55;1.88;;;;;;;;;;4991123;28;20584;-83
2023/07/24 14:03:37;;;;;;;4.35;1.70;;;;;;;;;;4986852;28;20057;-82
2023/07/24 14:06:03;;;;;;;6.07;2.10;;;;;;;;;;4963760;28;20041;-82
2023/07/24 14:08:29;;;;;;;5.65;1.80;;;;;;;;;;5013512;28;20041;-82
2023/07/24 14:10:55;;;;;;;5.95;1.88;;;;;;;;;;4996368;28;20135;-82
2023/07/24 14:13:21;;;;;;;4.93;1.70;;;;;;;;;;5011549;28;20034;-82
2023/07/24 14:15:47;;;;;;;4.90;1.92;;;;;;;;;;5013385;28;20045;-82
2023/07/24 14:18:13;;;;;;;5.82;1.70;;;;;;;;;;4989271;28;20419;-82
2023/07/24 14:20:40;;;;;;;4.78;1.85;;;;;;;;;;4992595;28;20462;-81
2023/07/24 14:23:07;;;;;;;5.32;2.15;;;;;;;;;;4994939;28;20047;-81
2023/07/24 14:25:34;;;;;;;3.65;1.90;;;;;;;;;;4995733;28;20096;-82
2023/07/24 14:28:00;;;;;;;5.35;2.00;;;;;;;;;;4995142;28;20053;-82